sensor_id;sensor_type;location;lat;lon;timestamp;P1;durP1;ratioP1;P2;durP2;ratioP2
3347;SDS011;1687;49.540;8.574;2022-08-25T00:01:42;5.33;;;1.30;;
3347;SDS011;1687;49.540;8.574;2022-08-25T00:04:30;3.60;;;1.27;;
3347;SDS011;1687;49.540;8.574;2022-08-25T00:06:56;2.13;;;1.20;;
3347;SDS011;1687;49.540;8.574;2022-08-25T00:09:24;2.27;;;1.20;;
3347;SDS011;1687;49.540;8.574;2022-08-25T00:11:52;3.60;;;1.90;;
3347;SDS011;1687;49.540;8.574;2022-08-25T00:14:20;4.70;;;2.03;;
3347;SDS011;1687;49.540;8.574;2022-08-25T00:16:50;2.17;;;1.17;;
3347;SDS011;1687;49.540;8.574;2022-08-25T00:19:18;4.13;;;1.67;;
3347;SDS011;1687;49.540;8.574;2022-08-25T00:21:47;2.90;;;1.30;;
3347;SDS011;1687;49.540;8.574;2022-08-25T00:24:14;2.93;;;1.50;;
3347;SDS011;1687;49.540;8.574;2022-08-25T00:26:43;2.33;;;1.30;;
3347;SDS011;1687;49.540;8.574;2022-08-25T00:29:11;3.40;;;1.57;;
3347;SDS011;1687;49.540;8.574;2022-08-25T00:31:38;5.37;;;2.10;;
3347;SDS011;1687;49.540;8.574;2022-08-25T00:34:06;4.30;;;1.90;;
3347;SDS011;1687;49.540;8.574;2022-08-25T00:36:36;5.87;;;2.27;;
3347;SDS011;1687;49.540;8.574;2022-08-25T00:39:02;2.70;;;1.13;;
3347;SDS011;1687;49.540;8.574;2022-08-25T00:41:30;3.97;;;1.60;;
3347;SDS011;1687;49.540;8.574;2022-08-25T00:44:00;3.70;;;1.77;;
3347;SDS011;1687;49.540;8.574;2022-08-25T00:46:30;4.67;;;2.23;;
3347;SDS011;1687;49.540;8.574;2022-08-25T00:49:09;5.40;;;2.10;;
3347;SDS011;1687;49.540;8.574;2022-08-25T00:51:41;2.37;;;1.50;;
3347;SDS011;1687;49.540;8.574;2022-08-25T00:54:16;3.00;;;1.83;;
3347;SDS011;1687;49.540;8.574;2022-08-25T00:56:47;7.83;;;2.00;;
3347;SDS011;1687;49.540;8.574;2022-08-25T00:59:13;2.90;;;1.70;;
3347;SDS011;1687;49.540;8.574;2022-08-25T01:01:40;3.30;;;1.70;;
3347;SDS011;1687;49.540;8.574;2022-08-25T01:04:06;2.43;;;1.33;;
3347;SDS011;1687;49.540;8.574;2022-08-25T01:06:32;3.53;;;1.37;;
3347;SDS011;1687;49.540;8.574;2022-08-25T01:09:01;5.03;;;1.60;;
3347;SDS011;1687;49.540;8.574;2022-08-25T01:11:28;7.23;;;2.10;;
3347;SDS011;1687;49.540;8.574;2022-08-25T01:13:55;3.90;;;1.80;;
3347;SDS011;1687;49.540;8.574;2022-08-25T01:16:22;3.10;;;1.33;;
3347;SDS011;1687;49.540;8.574;2022-08-25T01:18:50;4.00;;;2.17;;
3347;SDS011;1687;49.540;8.574;2022-08-25T01:21:21;2.97;;;1.77;;
3347;SDS011;1687;49.540;8.574;2022-08-25T01:23:49;4.80;;;1.33;;
3347;SDS011;1687;49.540;8.574;2022-08-25T01:26:20;4.07;;;2.50;;
3347;SDS011;1687;49.540;8.574;2022-08-25T01:28:49;4.07;;;1.97;;
3347;SDS011;1687;49.540;8.574;2022-08-25T01:31:35;3.93;;;1.97;;
3347;SDS011;1687;49.540;8.574;2022-08-25T01:34:02;3.90;;;1.67;;
3347;SDS011;1687;49.540;8.574;2022-08-25T01:36:30;5.13;;;1.93;;
3347;SDS011;1687;49.540;8.574;2022-08-25T01:38:57;3.87;;;2.10;;
3347;SDS011;1687;49.540;8.574;2022-08-25T01:43:58;6.17;;;2.50;;
3347;SDS011;1687;49.540;8.574;2022-08-25T01:46:26;4.33;;;2.53;;
3347;SDS011;1687;49.540;8.574;2022-08-25T01:48:52;2.90;;;1.37;;
3347;SDS011;1687;49.540;8.574;2022-08-25T01:51:18;2.77;;;2.13;;
3347;SDS011;1687;49.540;8.574;2022-08-25T01:53:48;3.80;;;2.13;;
3347;SDS011;1687;49.540;8.574;2022-08-25T01:56:15;2.87;;;1.73;;
3347;SDS011;1687;49.540;8.574;2022-08-25T01:58:46;4.27;;;1.63;;
3347;SDS011;1687;49.540;8.574;2022-08-25T02:01:16;2.40;;;1.37;;
3347;SDS011;1687;49.540;8.574;2022-08-25T02:03:48;7.53;;;2.07;;
3347;SDS011;1687;49.540;8.574;2022-08-25T02:06:19;3.77;;;1.60;;
3347;SDS011;1687;49.540;8.574;2022-08-25T02:08:53;4.67;;;2.60;;
3347;SDS011;1687;49.540;8.574;2022-08-25T02:11:22;4.70;;;1.97;;
3347;SDS011;1687;49.540;8.574;2022-08-25T02:13:49;2.93;;;1.83;;
3347;SDS011;1687;49.540;8.574;2022-08-25T02:16:21;12.40;;;2.27;;
3347;SDS011;1687;49.540;8.574;2022-08-25T02:18:52;3.60;;;1.50;;
3347;SDS011;1687;49.540;8.574;2022-08-25T02:21:19;5.47;;;2.27;;
3347;SDS011;1687;49.540;8.574;2022-08-25T02:23:45;5.80;;;2.20;;
3347;SDS011;1687;49.540;8.574;2022-08-25T02:26:11;2.93;;;1.70;;
3347;SDS011;1687;49.540;8.574;2022-08-25T02:28:43;5.90;;;1.33;;
3347;SDS011;1687;49.540;8.574;2022-08-25T02:31:12;4.83;;;1.97;;
3347;SDS011;1687;49.540;8.574;2022-08-25T02:33:38;6.30;;;2.10;;
3347;SDS011;1687;49.540;8.574;2022-08-25T02:36:04;2.33;;;1.10;;
3347;SDS011;1687;49.540;8.574;2022-08-25T02:38:31;3.43;;;1.80;;
3347;SDS011;1687;49.540;8.574;2022-08-25T02:40:58;2.83;;;1.63;;
3347;SDS011;1687;49.540;8.574;2022-08-25T02:43:25;2.37;;;1.53;;
3347;SDS011;1687;49.540;8.574;2022-08-25T02:45:53;3.30;;;1.63;;
3347;SDS011;1687;49.540;8.574;2022-08-25T02:48:20;5.17;;;2.70;;
3347;SDS011;1687;49.540;8.574;2022-08-25T02:50:46;4.60;;;2.20;;
3347;SDS011;1687;49.540;8.574;2022-08-25T02:53:17;3.17;;;1.87;;
3347;SDS011;1687;49.540;8.574;2022-08-25T02:55:44;6.13;;;2.83;;
3347;SDS011;1687;49.540;8.574;2022-08-25T02:58:11;5.63;;;1.93;;
3347;SDS011;1687;49.540;8.574;2022-08-25T03:00:38;4.70;;;2.00;;
3347;SDS011;1687;49.540;8.574;2022-08-25T03:03:04;4.50;;;2.23;;
3347;SDS011;1687;49.540;8.574;2022-08-25T03:05:30;4.03;;;2.07;;
3347;SDS011;1687;49.540;8.574;2022-08-25T03:07:56;3.40;;;1.73;;
3347;SDS011;1687;49.540;8.574;2022-08-25T03:10:22;8.80;;;2.07;;
3347;SDS011;1687;49.540;8.574;2022-08-25T03:12:48;5.43;;;1.93;;
3347;SDS011;1687;49.540;8.574;2022-08-25T03:15:14;2.87;;;1.20;;
3347;SDS011;1687;49.540;8.574;2022-08-25T03:17:42;9.50;;;3.00;;
3347;SDS011;1687;49.540;8.574;2022-08-25T03:20:09;6.80;;;2.17;;
3347;SDS011;1687;49.540;8.574;2022-08-25T03:22:35;5.77;;;2.50;;
3347;SDS011;1687;49.540;8.574;2022-08-25T03:25:01;3.93;;;1.90;;
3347;SDS011;1687;49.540;8.574;2022-08-25T03:27:48;3.77;;;2.13;;
3347;SDS011;1687;49.540;8.574;2022-08-25T03:30:15;4.97;;;2.23;;
3347;SDS011;1687;49.540;8.574;2022-08-25T03:32:42;5.10;;;1.70;;
3347;SDS011;1687;49.540;8.574;2022-08-25T03:35:08;5.97;;;2.00;;
3347;SDS011;1687;49.540;8.574;2022-08-25T03:37:34;6.43;;;3.50;;
3347;SDS011;1687;49.540;8.574;2022-08-25T03:40:02;5.20;;;2.13;;
3347;SDS011;1687;49.540;8.574;2022-08-25T03:42:30;3.77;;;1.63;;
3347;SDS011;1687;49.540;8.574;2022-08-25T03:44:56;3.83;;;1.60;;
3347;SDS011;1687;49.540;8.574;2022-08-25T03:47:22;3.13;;;1.80;;
3347;SDS011;1687;49.540;8.574;2022-08-25T03:49:50;4.53;;;1.90;;
3347;SDS011;1687;49.540;8.574;2022-08-25T03:52:16;5.23;;;1.77;;
3347;SDS011;1687;49.540;8.574;2022-08-25T03:54:42;7.37;;;3.23;;
3347;SDS011;1687;49.540;8.574;2022-08-25T03:57:10;3.80;;;2.10;;
3347;SDS011;1687;49.540;8.574;2022-08-25T03:59:35;2.90;;;1.30;;
3347;SDS011;1687;49.540;8.574;2022-08-25T04:02:04;6.20;;;2.13;;
3347;SDS011;1687;49.540;8.574;2022-08-25T04:04:32;6.10;;;2.20;;
3347;SDS011;1687;49.540;8.574;2022-08-25T04:06:59;3.03;;;1.77;;
3347;SDS011;1687;49.540;8.574;2022-08-25T04:09:25;4.20;;;1.87;;
3347;SDS011;1687;49.540;8.574;2022-08-25T04:11:51;8.03;;;3.07;;
3347;SDS011;1687;49.540;8.574;2022-08-25T04:14:17;5.93;;;2.23;;
3347;SDS011;1687;49.540;8.574;2022-08-25T04:16:45;4.90;;;2.13;;
3347;SDS011;1687;49.540;8.574;2022-08-25T04:19:10;14.77;;;3.20;;
3347;SDS011;1687;49.540;8.574;2022-08-25T04:21:37;43.20;;;3.50;;
3347;SDS011;1687;49.540;8.574;2022-08-25T04:24:05;4.87;;;2.30;;
3347;SDS011;1687;49.540;8.574;2022-08-25T04:26:40;4.77;;;2.70;;
3347;SDS011;1687;49.540;8.574;2022-08-25T04:29:12;5.00;;;2.97;;
3347;SDS011;1687;49.540;8.574;2022-08-25T04:31:42;6.67;;;2.10;;
3347;SDS011;1687;49.540;8.574;2022-08-25T04:34:10;3.90;;;1.47;;
3347;SDS011;1687;49.540;8.574;2022-08-25T04:36:37;5.93;;;3.27;;
3347;SDS011;1687;49.540;8.574;2022-08-25T04:39:04;5.73;;;2.90;;
3347;SDS011;1687;49.540;8.574;2022-08-25T04:41:30;5.60;;;2.50;;
3347;SDS011;1687;49.540;8.574;2022-08-25T04:43:56;6.30;;;2.80;;
3347;SDS011;1687;49.540;8.574;2022-08-25T04:46:25;3.90;;;1.83;;
3347;SDS011;1687;49.540;8.574;2022-08-25T04:48:54;3.97;;;2.13;;
3347;SDS011;1687;49.540;8.574;2022-08-25T04:51:23;4.10;;;2.43;;
3347;SDS011;1687;49.540;8.574;2022-08-25T04:53:53;5.27;;;2.73;;
3347;SDS011;1687;49.540;8.574;2022-08-25T04:56:22;7.53;;;2.47;;
3347;SDS011;1687;49.540;8.574;2022-08-25T04:58:51;4.93;;;2.30;;
3347;SDS011;1687;49.540;8.574;2022-08-25T05:01:20;3.87;;;1.63;;
3347;SDS011;1687;49.540;8.574;2022-08-25T05:03:51;6.10;;;3.03;;
3347;SDS011;1687;49.540;8.574;2022-08-25T05:06:23;5.97;;;3.07;;
3347;SDS011;1687;49.540;8.574;2022-08-25T05:08:50;14.53;;;2.63;;
3347;SDS011;1687;49.540;8.574;2022-08-25T05:11:16;7.90;;;2.50;;
3347;SDS011;1687;49.540;8.574;2022-08-25T05:13:44;11.50;;;3.43;;
3347;SDS011;1687;49.540;8.574;2022-08-25T05:16:12;9.77;;;2.17;;
3347;SDS011;1687;49.540;8.574;2022-08-25T05:18:38;4.30;;;1.73;;
3347;SDS011;1687;49.540;8.574;2022-08-25T05:21:05;3.97;;;1.90;;
3347;SDS011;1687;49.540;8.574;2022-08-25T05:23:37;6.20;;;2.20;;
3347;SDS011;1687;49.540;8.574;2022-08-25T05:26:05;6.60;;;3.10;;
3347;SDS011;1687;49.540;8.574;2022-08-25T05:28:38;6.73;;;3.17;;
3347;SDS011;1687;49.540;8.574;2022-08-25T05:31:08;5.27;;;2.60;;
3347;SDS011;1687;49.540;8.574;2022-08-25T05:33:36;4.20;;;2.40;;
3347;SDS011;1687;49.540;8.574;2022-08-25T05:36:03;3.33;;;1.87;;
3347;SDS011;1687;49.540;8.574;2022-08-25T05:38:30;6.80;;;2.30;;
3347;SDS011;1687;49.540;8.574;2022-08-25T05:41:01;5.03;;;3.33;;
3347;SDS011;1687;49.540;8.574;2022-08-25T05:43:30;5.90;;;2.60;;
3347;SDS011;1687;49.540;8.574;2022-08-25T05:45:56;8.90;;;4.43;;
3347;SDS011;1687;49.540;8.574;2022-08-25T05:48:23;10.67;;;3.40;;
3347;SDS011;1687;49.540;8.574;2022-08-25T05:50:54;17.73;;;3.80;;
3347;SDS011;1687;49.540;8.574;2022-08-25T05:53:25;7.83;;;2.80;;
3347;SDS011;1687;49.540;8.574;2022-08-25T05:55:53;7.17;;;3.10;;
3347;SDS011;1687;49.540;8.574;2022-08-25T05:58:21;9.67;;;3.30;;
3347;SDS011;1687;49.540;8.574;2022-08-25T06:00:48;10.77;;;2.50;;
3347;SDS011;1687;49.540;8.574;2022-08-25T06:03:15;5.77;;;2.87;;
3347;SDS011;1687;49.540;8.574;2022-08-25T06:05:41;17.00;;;4.60;;
3347;SDS011;1687;49.540;8.574;2022-08-25T06:08:06;5.53;;;2.43;;
3347;SDS011;1687;49.540;8.574;2022-08-25T06:10:33;9.97;;;4.53;;
3347;SDS011;1687;49.540;8.574;2022-08-25T06:12:59;5.27;;;3.20;;
3347;SDS011;1687;49.540;8.574;2022-08-25T06:15:25;7.13;;;2.23;;
3347;SDS011;1687;49.540;8.574;2022-08-25T06:17:52;5.97;;;2.40;;
3347;SDS011;1687;49.540;8.574;2022-08-25T06:20:21;6.70;;;2.90;;
3347;SDS011;1687;49.540;8.574;2022-08-25T06:22:50;3.93;;;2.10;;
3347;SDS011;1687;49.540;8.574;2022-08-25T06:25:17;4.37;;;2.07;;
3347;SDS011;1687;49.540;8.574;2022-08-25T06:27:46;5.93;;;2.60;;
3347;SDS011;1687;49.540;8.574;2022-08-25T06:30:18;4.37;;;2.70;;
3347;SDS011;1687;49.540;8.574;2022-08-25T06:32:47;5.73;;;2.70;;
3347;SDS011;1687;49.540;8.574;2022-08-25T06:35:14;10.10;;;3.83;;
3347;SDS011;1687;49.540;8.574;2022-08-25T06:37:43;5.67;;;3.00;;
3347;SDS011;1687;49.540;8.574;2022-08-25T06:40:09;4.83;;;2.40;;
3347;SDS011;1687;49.540;8.574;2022-08-25T06:42:36;4.90;;;2.50;;
3347;SDS011;1687;49.540;8.574;2022-08-25T06:45:02;7.40;;;2.90;;
3347;SDS011;1687;49.540;8.574;2022-08-25T06:47:28;6.80;;;2.60;;
3347;SDS011;1687;49.540;8.574;2022-08-25T06:49:54;5.50;;;3.33;;
3347;SDS011;1687;49.540;8.574;2022-08-25T06:52:20;4.30;;;1.93;;
3347;SDS011;1687;49.540;8.574;2022-08-25T06:54:46;4.83;;;2.40;;
3347;SDS011;1687;49.540;8.574;2022-08-25T06:57:12;7.90;;;2.47;;
3347;SDS011;1687;49.540;8.574;2022-08-25T06:59:38;7.23;;;3.10;;
3347;SDS011;1687;49.540;8.574;2022-08-25T07:02:04;6.93;;;2.57;;
3347;SDS011;1687;49.540;8.574;2022-08-25T07:04:31;4.57;;;2.00;;
3347;SDS011;1687;49.540;8.574;2022-08-25T07:06:58;3.30;;;2.13;;
3347;SDS011;1687;49.540;8.574;2022-08-25T07:09:24;10.53;;;3.60;;
3347;SDS011;1687;49.540;8.574;2022-08-25T07:11:49;6.80;;;2.80;;
3347;SDS011;1687;49.540;8.574;2022-08-25T07:14:16;5.27;;;3.00;;
3347;SDS011;1687;49.540;8.574;2022-08-25T07:16:43;5.70;;;2.43;;
3347;SDS011;1687;49.540;8.574;2022-08-25T07:19:10;5.40;;;2.20;;
3347;SDS011;1687;49.540;8.574;2022-08-25T07:21:36;8.70;;;3.40;;
3347;SDS011;1687;49.540;8.574;2022-08-25T07:24:06;7.17;;;2.30;;
3347;SDS011;1687;49.540;8.574;2022-08-25T07:26:35;4.17;;;2.33;;
3347;SDS011;1687;49.540;8.574;2022-08-25T07:29:03;8.47;;;4.10;;
3347;SDS011;1687;49.540;8.574;2022-08-25T07:31:39;3.90;;;1.90;;
3347;SDS011;1687;49.540;8.574;2022-08-25T07:34:05;4.70;;;2.60;;
3347;SDS011;1687;49.540;8.574;2022-08-25T07:36:50;6.07;;;2.33;;
3347;SDS011;1687;49.540;8.574;2022-08-25T07:39:17;3.77;;;2.00;;
3347;SDS011;1687;49.540;8.574;2022-08-25T07:41:43;5.33;;;2.67;;
3347;SDS011;1687;49.540;8.574;2022-08-25T07:44:09;4.40;;;2.17;;
3347;SDS011;1687;49.540;8.574;2022-08-25T07:46:37;5.20;;;2.50;;
3347;SDS011;1687;49.540;8.574;2022-08-25T07:49:04;11.77;;;3.53;;
3347;SDS011;1687;49.540;8.574;2022-08-25T07:51:32;5.10;;;2.27;;
3347;SDS011;1687;49.540;8.574;2022-08-25T07:53:58;5.53;;;2.50;;
3347;SDS011;1687;49.540;8.574;2022-08-25T07:56:30;5.10;;;2.23;;
3347;SDS011;1687;49.540;8.574;2022-08-25T07:58:56;3.93;;;2.10;;
3347;SDS011;1687;49.540;8.574;2022-08-25T08:01:23;5.00;;;2.50;;
3347;SDS011;1687;49.540;8.574;2022-08-25T08:03:49;3.70;;;2.67;;
3347;SDS011;1687;49.540;8.574;2022-08-25T08:06:17;4.50;;;2.90;;
3347;SDS011;1687;49.540;8.574;2022-08-25T08:08:47;5.10;;;2.70;;
3347;SDS011;1687;49.540;8.574;2022-08-25T08:11:16;3.40;;;2.07;;
3347;SDS011;1687;49.540;8.574;2022-08-25T08:13:48;3.40;;;1.87;;
3347;SDS011;1687;49.540;8.574;2022-08-25T08:16:15;5.57;;;2.57;;
3347;SDS011;1687;49.540;8.574;2022-08-25T08:18:42;5.00;;;2.13;;
3347;SDS011;1687;49.540;8.574;2022-08-25T08:21:28;6.70;;;3.20;;
3347;SDS011;1687;49.540;8.574;2022-08-25T08:23:58;5.53;;;2.30;;
3347;SDS011;1687;49.540;8.574;2022-08-25T08:26:25;4.77;;;2.60;;
3347;SDS011;1687;49.540;8.574;2022-08-25T08:28:52;4.23;;;2.60;;
3347;SDS011;1687;49.540;8.574;2022-08-25T08:31:22;6.83;;;2.93;;
3347;SDS011;1687;49.540;8.574;2022-08-25T08:33:50;6.17;;;2.57;;
3347;SDS011;1687;49.540;8.574;2022-08-25T08:36:18;6.83;;;2.73;;
3347;SDS011;1687;49.540;8.574;2022-08-25T08:38:46;4.93;;;2.63;;
3347;SDS011;1687;49.540;8.574;2022-08-25T08:44:21;2.83;;;1.73;;
3347;SDS011;1687;49.540;8.574;2022-08-25T08:55:46;6.03;;;1.90;;
3347;SDS011;1687;49.540;8.574;2022-08-25T08:58:20;9.63;;;3.13;;
3347;SDS011;1687;49.540;8.574;2022-08-25T09:01:12;4.20;;;2.10;;
3347;SDS011;1687;49.540;8.574;2022-08-25T09:03:51;3.27;;;1.80;;
3347;SDS011;1687;49.540;8.574;2022-08-25T09:06:47;3.73;;;1.60;;
3347;SDS011;1687;49.540;8.574;2022-08-25T09:09:25;4.53;;;2.20;;
3347;SDS011;1687;49.540;8.574;2022-08-25T09:12:10;3.73;;;2.00;;
3347;SDS011;1687;49.540;8.574;2022-08-25T09:14:53;4.47;;;1.50;;
3347;SDS011;1687;49.540;8.574;2022-08-25T09:18:22;4.40;;;2.13;;
3347;SDS011;1687;49.540;8.574;2022-08-25T09:30:07;3.43;;;1.97;;
3347;SDS011;1687;49.540;8.574;2022-08-25T09:32:56;4.37;;;1.70;;
3347;SDS011;1687;49.540;8.574;2022-08-25T09:35:32;3.07;;;1.90;;
3347;SDS011;1687;49.540;8.574;2022-08-25T09:38:02;3.97;;;1.90;;
3347;SDS011;1687;49.540;8.574;2022-08-25T09:40:38;2.50;;;2.03;;
3347;SDS011;1687;49.540;8.574;2022-08-25T09:46:09;3.77;;;1.80;;
3347;SDS011;1687;49.540;8.574;2022-08-25T09:59:26;5.20;;;1.80;;
3347;SDS011;1687;49.540;8.574;2022-08-25T10:02:00;2.67;;;1.50;;
3347;SDS011;1687;49.540;8.574;2022-08-25T10:04:48;6.07;;;1.77;;
3347;SDS011;1687;49.540;8.574;2022-08-25T10:07:25;3.20;;;1.73;;
3347;SDS011;1687;49.540;8.574;2022-08-25T10:10:03;2.90;;;1.30;;
3347;SDS011;1687;49.540;8.574;2022-08-25T10:12:43;2.83;;;1.60;;
3347;SDS011;1687;49.540;8.574;2022-08-25T10:15:20;2.97;;;1.60;;
3347;SDS011;1687;49.540;8.574;2022-08-25T10:17:50;3.80;;;1.70;;
3347;SDS011;1687;49.540;8.574;2022-08-25T10:20:21;3.03;;;1.70;;
3347;SDS011;1687;49.540;8.574;2022-08-25T10:22:52;4.07;;;2.03;;
3347;SDS011;1687;49.540;8.574;2022-08-25T10:25:41;2.50;;;1.30;;
3347;SDS011;1687;49.540;8.574;2022-08-25T10:31:06;3.10;;;1.57;;
3347;SDS011;1687;49.540;8.574;2022-08-25T10:33:55;2.43;;;1.40;;
3347;SDS011;1687;49.540;8.574;2022-08-25T10:39:45;6.13;;;1.80;;
3347;SDS011;1687;49.540;8.574;2022-08-25T10:42:29;3.30;;;1.60;;
3347;SDS011;1687;49.540;8.574;2022-08-25T10:45:15;2.47;;;1.63;;
3347;SDS011;1687;49.540;8.574;2022-08-25T10:57:33;2.90;;;1.73;;
3347;SDS011;1687;49.540;8.574;2022-08-25T11:00:20;3.03;;;1.30;;
3347;SDS011;1687;49.540;8.574;2022-08-25T11:06:06;3.10;;;1.67;;
3347;SDS011;1687;49.540;8.574;2022-08-25T11:08:55;3.30;;;1.93;;
3347;SDS011;1687;49.540;8.574;2022-08-25T11:11:30;3.80;;;1.60;;
3347;SDS011;1687;49.540;8.574;2022-08-25T11:16:51;2.20;;;1.27;;
3347;SDS011;1687;49.540;8.574;2022-08-25T11:19:46;3.00;;;1.43;;
3347;SDS011;1687;49.540;8.574;2022-08-25T11:25:06;2.53;;;1.67;;
3347;SDS011;1687;49.540;8.574;2022-08-25T11:28:11;2.57;;;1.40;;
3347;SDS011;1687;49.540;8.574;2022-08-25T11:30:54;2.60;;;1.57;;
3347;SDS011;1687;49.540;8.574;2022-08-25T11:33:23;3.20;;;1.50;;
3347;SDS011;1687;49.540;8.574;2022-08-25T11:35:54;2.73;;;1.67;;
3347;SDS011;1687;49.540;8.574;2022-08-25T11:44:49;7.13;;;1.77;;
3347;SDS011;1687;49.540;8.574;2022-08-25T11:50:36;1.90;;;1.30;;
3347;SDS011;1687;49.540;8.574;2022-08-25T11:53:30;3.17;;;1.33;;
3347;SDS011;1687;49.540;8.574;2022-08-25T11:56:12;1.90;;;1.13;;
3347;SDS011;1687;49.540;8.574;2022-08-25T11:59:00;3.03;;;1.77;;
3347;SDS011;1687;49.540;8.574;2022-08-25T12:09:31;4.30;;;1.53;;
3347;SDS011;1687;49.540;8.574;2022-08-25T12:11:58;3.47;;;2.10;;
3347;SDS011;1687;49.540;8.574;2022-08-25T12:15:22;2.17;;;1.03;;
3347;SDS011;1687;49.540;8.574;2022-08-25T12:23:26;3.43;;;1.33;;
3347;SDS011;1687;49.540;8.574;2022-08-25T12:25:53;2.47;;;1.77;;
3347;SDS011;1687;49.540;8.574;2022-08-25T12:28:31;5.00;;;1.57;;
3347;SDS011;1687;49.540;8.574;2022-08-25T12:31:22;1.93;;;1.00;;
3347;SDS011;1687;49.540;8.574;2022-08-25T12:37:16;2.97;;;1.60;;
3347;SDS011;1687;49.540;8.574;2022-08-25T12:45:07;1.47;;;0.90;;
3347;SDS011;1687;49.540;8.574;2022-08-25T12:47:33;2.83;;;1.10;;
3347;SDS011;1687;49.540;8.574;2022-08-25T12:52:58;3.87;;;1.93;;
3347;SDS011;1687;49.540;8.574;2022-08-25T12:56:02;3.40;;;1.43;;
3347;SDS011;1687;49.540;8.574;2022-08-25T12:58:35;2.00;;;1.00;;
3347;SDS011;1687;49.540;8.574;2022-08-25T13:07:17;2.67;;;1.67;;
3347;SDS011;1687;49.540;8.574;2022-08-25T13:13:14;1.53;;;1.00;;
3347;SDS011;1687;49.540;8.574;2022-08-25T13:15:42;2.80;;;1.27;;
3347;SDS011;1687;49.540;8.574;2022-08-25T13:21:32;3.13;;;2.20;;
3347;SDS011;1687;49.540;8.574;2022-08-25T13:23:51;2.60;;;1.37;;
3347;SDS011;1687;49.540;8.574;2022-08-25T13:26:23;2.37;;;1.10;;
3347;SDS011;1687;49.540;8.574;2022-08-25T13:29:02;1.77;;;1.17;;
3347;SDS011;1687;49.540;8.574;2022-08-25T13:31:54;3.23;;;1.10;;
3347;SDS011;1687;49.540;8.574;2022-08-25T13:34:25;2.47;;;1.50;;
3347;SDS011;1687;49.540;8.574;2022-08-25T13:37:13;2.50;;;1.23;;
3347;SDS011;1687;49.540;8.574;2022-08-25T13:42:58;3.73;;;1.70;;
3347;SDS011;1687;49.540;8.574;2022-08-25T13:45:29;2.37;;;1.30;;
3347;SDS011;1687;49.540;8.574;2022-08-25T13:48:01;2.27;;;1.30;;
3347;SDS011;1687;49.540;8.574;2022-08-25T13:50:30;2.80;;;1.33;;
3347;SDS011;1687;49.540;8.574;2022-08-25T13:53:12;2.17;;;1.30;;
3347;SDS011;1687;49.540;8.574;2022-08-25T13:55:55;1.43;;;1.07;;
3347;SDS011;1687;49.540;8.574;2022-08-25T13:58:25;2.27;;;1.43;;
3347;SDS011;1687;49.540;8.574;2022-08-25T14:00:59;1.57;;;1.20;;
3347;SDS011;1687;49.540;8.574;2022-08-25T14:03:38;2.93;;;1.60;;
3347;SDS011;1687;49.540;8.574;2022-08-25T14:11:27;2.20;;;1.00;;
3347;SDS011;1687;49.540;8.574;2022-08-25T14:14:12;1.33;;;1.23;;
3347;SDS011;1687;49.540;8.574;2022-08-25T14:16:48;1.70;;;1.03;;
3347;SDS011;1687;49.540;8.574;2022-08-25T14:19:33;1.50;;;1.20;;
3347;SDS011;1687;49.540;8.574;2022-08-25T14:22:01;1.20;;;1.10;;
3347;SDS011;1687;49.540;8.574;2022-08-25T14:24:32;1.00;;;0.60;;
3347;SDS011;1687;49.540;8.574;2022-08-25T14:26:59;1.15;;;0.98;;
3347;SDS011;1687;49.540;8.574;2022-08-25T14:29:26;1.02;;;0.80;;
3347;SDS011;1687;49.540;8.574;2022-08-25T14:31:53;0.98;;;0.80;;
3347;SDS011;1687;49.540;8.574;2022-08-25T14:34:20;0.98;;;0.88;;
3347;SDS011;1687;49.540;8.574;2022-08-25T14:36:50;0.98;;;0.88;;
3347;SDS011;1687;49.540;8.574;2022-08-25T14:39:16;1.02;;;0.80;;
3347;SDS011;1687;49.540;8.574;2022-08-25T14:41:42;1.75;;;1.08;;
3347;SDS011;1687;49.540;8.574;2022-08-25T14:44:10;1.05;;;0.70;;
3347;SDS011;1687;49.540;8.574;2022-08-25T14:46:40;0.93;;;0.82;;
3347;SDS011;1687;49.540;8.574;2022-08-25T14:49:10;0.98;;;0.88;;
3347;SDS011;1687;49.540;8.574;2022-08-25T14:51:42;1.35;;;1.25;;
3347;SDS011;1687;49.540;8.574;2022-08-25T14:54:09;0.90;;;0.90;;
3347;SDS011;1687;49.540;8.574;2022-08-25T14:56:38;1.20;;;0.90;;
3347;SDS011;1687;49.540;8.574;2022-08-25T14:59:05;0.88;;;0.77;;
3347;SDS011;1687;49.540;8.574;2022-08-25T15:01:31;1.40;;;0.68;;
3347;SDS011;1687;49.540;8.574;2022-08-25T15:04:07;1.30;;;0.80;;
3347;SDS011;1687;49.540;8.574;2022-08-25T15:06:37;0.90;;;0.90;;
3347;SDS011;1687;49.540;8.574;2022-08-25T15:09:06;1.10;;;1.00;;
3347;SDS011;1687;49.540;8.574;2022-08-25T15:11:44;0.80;;;0.70;;
3347;SDS011;1687;49.540;8.574;2022-08-25T15:14:17;1.55;;;1.02;;
3347;SDS011;1687;49.540;8.574;2022-08-25T15:16:49;1.05;;;0.90;;
3347;SDS011;1687;49.540;8.574;2022-08-25T15:19:19;0.75;;;0.75;;
3347;SDS011;1687;49.540;8.574;2022-08-25T15:21:49;0.90;;;0.88;;
3347;SDS011;1687;49.540;8.574;2022-08-25T15:24:16;1.80;;;1.25;;
3347;SDS011;1687;49.540;8.574;2022-08-25T15:26:51;1.00;;;1.00;;
3347;SDS011;1687;49.540;8.574;2022-08-25T15:29:20;0.80;;;0.80;;
3347;SDS011;1687;49.540;8.574;2022-08-25T15:31:47;0.80;;;0.80;;
3347;SDS011;1687;49.540;8.574;2022-08-25T15:34:13;0.95;;;0.85;;
3347;SDS011;1687;49.540;8.574;2022-08-25T15:36:39;0.70;;;0.70;;
3347;SDS011;1687;49.540;8.574;2022-08-25T15:39:05;0.90;;;0.90;;
3347;SDS011;1687;49.540;8.574;2022-08-25T15:41:32;0.55;;;0.55;;
3347;SDS011;1687;49.540;8.574;2022-08-25T15:43:58;0.77;;;0.77;;
3347;SDS011;1687;49.540;8.574;2022-08-25T15:46:25;0.80;;;0.80;;
3347;SDS011;1687;49.540;8.574;2022-08-25T15:48:54;0.70;;;0.70;;
3347;SDS011;1687;49.540;8.574;2022-08-25T15:51:24;0.85;;;0.85;;
3347;SDS011;1687;49.540;8.574;2022-08-25T15:53:51;0.70;;;0.70;;
3347;SDS011;1687;49.540;8.574;2022-08-25T15:56:17;0.70;;;0.70;;
3347;SDS011;1687;49.540;8.574;2022-08-25T15:58:43;0.60;;;0.60;;
3347;SDS011;1687;49.540;8.574;2022-08-25T16:01:14;0.90;;;0.90;;
3347;SDS011;1687;49.540;8.574;2022-08-25T16:03:43;0.77;;;0.77;;
3347;SDS011;1687;49.540;8.574;2022-08-25T16:06:09;0.65;;;0.65;;
3347;SDS011;1687;49.540;8.574;2022-08-25T16:08:36;0.60;;;0.60;;
3347;SDS011;1687;49.540;8.574;2022-08-25T16:11:02;0.77;;;0.77;;
3347;SDS011;1687;49.540;8.574;2022-08-25T16:13:29;1.15;;;0.75;;
3347;SDS011;1687;49.540;8.574;2022-08-25T16:15:56;0.70;;;0.70;;
3347;SDS011;1687;49.540;8.574;2022-08-25T16:18:22;0.80;;;0.80;;
3347;SDS011;1687;49.540;8.574;2022-08-25T16:20:48;0.70;;;0.70;;
3347;SDS011;1687;49.540;8.574;2022-08-25T16:23:15;0.93;;;0.70;;
3347;SDS011;1687;49.540;8.574;2022-08-25T16:25:43;0.98;;;0.80;;
3347;SDS011;1687;49.540;8.574;2022-08-25T16:28:12;0.98;;;0.88;;
3347;SDS011;1687;49.540;8.574;2022-08-25T16:30:43;1.58;;;1.08;;
3347;SDS011;1687;49.540;8.574;2022-08-25T16:33:11;1.30;;;1.20;;
3347;SDS011;1687;49.540;8.574;2022-08-25T16:35:37;1.40;;;0.88;;
3347;SDS011;1687;49.540;8.574;2022-08-25T16:38:03;2.30;;;1.20;;
3347;SDS011;1687;49.540;8.574;2022-08-25T16:40:29;1.50;;;0.90;;
3347;SDS011;1687;49.540;8.574;2022-08-25T16:42:55;0.90;;;0.80;;
3347;SDS011;1687;49.540;8.574;2022-08-25T16:45:21;1.30;;;1.00;;
3347;SDS011;1687;49.540;8.574;2022-08-25T16:47:48;1.20;;;1.00;;
3347;SDS011;1687;49.540;8.574;2022-08-25T16:50:14;1.00;;;0.90;;
3347;SDS011;1687;49.540;8.574;2022-08-25T16:52:40;1.40;;;0.97;;
3347;SDS011;1687;49.540;8.574;2022-08-25T16:55:24;1.20;;;1.00;;
3347;SDS011;1687;49.540;8.574;2022-08-25T16:57:53;2.47;;;1.63;;
3347;SDS011;1687;49.540;8.574;2022-08-25T17:00:21;2.00;;;1.47;;
3347;SDS011;1687;49.540;8.574;2022-08-25T17:02:49;18.03;;;1.90;;
3347;SDS011;1687;49.540;8.574;2022-08-25T17:05:23;7.07;;;1.93;;
3347;SDS011;1687;49.540;8.574;2022-08-25T17:07:49;2.87;;;2.33;;
3347;SDS011;1687;49.540;8.574;2022-08-25T17:10:34;2.10;;;1.60;;
3347;SDS011;1687;49.540;8.574;2022-08-25T17:13:01;3.77;;;1.23;;
3347;SDS011;1687;49.540;8.574;2022-08-25T17:15:28;19.23;;;1.53;;
3347;SDS011;1687;49.540;8.574;2022-08-25T17:17:54;2.23;;;1.20;;
3347;SDS011;1687;49.540;8.574;2022-08-25T17:20:20;2.60;;;1.33;;
3347;SDS011;1687;49.540;8.574;2022-08-25T17:22:45;2.80;;;2.23;;
3347;SDS011;1687;49.540;8.574;2022-08-25T17:25:12;1.90;;;1.60;;
3347;SDS011;1687;49.540;8.574;2022-08-25T17:27:38;3.83;;;1.60;;
3347;SDS011;1687;49.540;8.574;2022-08-25T17:30:03;3.33;;;1.90;;
3347;SDS011;1687;49.540;8.574;2022-08-25T17:32:30;4.43;;;2.50;;
3347;SDS011;1687;49.540;8.574;2022-08-25T17:34:56;6.47;;;2.73;;